Time;durP1;ratioP1;P1;durP2;ratioP2;P2;SDS_P1;SDS_P2;PMS_P1;PMS_P2;Temp;Humidity;BMP_temperature;BMP_pressure;BME280_temperature;BME280_humidity;BME280_pressure;Samples;Min_cycle;Max_cycle;Signal;HPM_P1;HPM_P2
2021/08/21 00:00:17;;;;;;;;;;;;;;;;;;5055125;28;19945;-79
2021/08/21 00:02:42;;;;;;;;;;;;;;;;;;5024260;28;19918;-79
2021/08/21 00:05:07;;;;;;;;;;;;;;;;;;5024524;28;19930;-79
2021/08/21 00:07:33;;;;;;;;;;;;;;;;;;5024902;28;19928;-78
2021/08/21 00:09:58;;;;;;;;;;;;;;;;;;5022680;28;19969;-78
2021/08/21 00:12:23;;;;;;;;;;;;;;;;;;5024621;28;19917;-78
2021/08/21 00:14:48;;;;;;;;;;;;;;;;;;5024741;28;20021;-78
2021/08/21 00:17:14;;;;;;;;;;;;;;;;;;5024438;28;19917;-78
2021/08/21 00:19:39;;;;;;;;;;;;;;;;;;5023595;28;20014;-78
2021/08/21 00:22:04;;;;;;;;;;;;;;;;;;5021569;28;19972;-79
2021/08/21 00:24:29;;;;;;;;;;;;;;;;;;5024545;28;19929;-79
2021/08/21 00:26:54;;;;;;;;;;;;;;;;;;5025919;28;19924;-79
2021/08/21 00:29:20;;;;;;;;;;;;;;;;;;5055270;28;19935;-79
2021/08/21 00:31:45;;;;;;;;;;;;;;;;;;5025838;28;19928;-79
2021/08/21 00:34:10;;;;;;;;;;;;;;;;;;5040016;28;19921;-79
2021/08/21 00:36:36;;;;;;;;;;;;;;;;;;5054454;28;19921;-79
2021/08/21 00:39:02;;;;;;;;;;;;;;;;;;5022574;28;19965;-79
2021/08/21 00:41:27;;;;;;;;;;;;;;;;;;5055275;28;19948;-79
2021/08/21 00:43:52;;;;;;;;;;;;;;;;;;5023984;28;19918;-80
2021/08/21 00:46:18;;;;;;;;;;;;;;;;;;5038642;28;19935;-79
2021/08/21 00:48:43;;;;;;;;;;;;;;;;;;5023302;28;19921;-79
2021/08/21 00:51:08;;;;;;;;;;;;;;;;;;5025069;28;19926;-78
2021/08/21 00:53:34;;;;;;;;;;;;;;;;;;5012214;28;19913;-79
2021/08/21 00:55:59;;;;;;;;;;;;;;;;;;5021071;28;19928;-79
2021/08/21 00:58:25;;;;;;;;;;;;;;;;;;5039367;28;19914;-78
2021/08/21 01:00:50;;;;;;;;;;;;;;;;;;5028498;28;19970;-79
2021/08/21 01:03:16;;;;;;;;;;;;;;;;;;5013453;28;19971;-79
2021/08/21 01:05:42;;;;;;;;;;;;;;;;;;5022568;28;19902;-79
2021/08/21 01:08:07;;;;;;;;;;;;;;;;;;5043043;28;19925;-78
2021/08/21 01:10:43;;;;;;;;;;;;;;;;;;5055427;28;19941;-78
2021/08/21 01:13:09;;;;;;;;;;;;;;;;;;5054428;28;19917;-79
2021/08/21 01:15:34;;;;;;;;;;;;;;;;;;5056826;28;19901;-78
2021/08/21 01:18:06;;;;;;;;;;;;;;;;;;5029045;28;20084;-78
2021/08/21 01:20:31;;;;;;;;;;;;;;;;;;5039774;28;19976;-79
2021/08/21 01:22:56;;;;;;;;;;;;;;;;;;5052132;28;19950;-78
2021/08/21 01:25:29;;;;;;;;;;;;;;;;;;5022117;28;19958;-77
2021/08/21 01:27:56;;;;;;;;;;;;;;;;;;5026294;28;20020;-78
2021/08/21 01:30:29;;;;;;;;;;;;;;;;;;5012091;28;19937;-79
2021/08/21 01:32:59;;;;;;;;;;;;;;;;;;5027400;28;19984;-78
2021/08/21 01:35:26;;;;;;;;;;;;;;;;;;5024314;28;19918;-79
2021/08/21 01:37:51;;;;;;;;;;;;;;;;;;5056696;28;19940;-80
2021/08/21 01:40:52;;;;;;;;;;;;;;;;;;5034330;28;19921;-79
2021/08/21 01:43:18;;;;;;;;;;;;;;;;;;5057273;28;19953;-79
2021/08/21 01:45:46;;;;;;;;;;;;;;;;;;5054862;28;19918;-80
2021/08/21 01:48:15;;;;;;;;;;;;;;;;;;5035230;28;19952;-78
2021/08/21 01:50:40;;;;;;;;;;;;;;;;;;5054016;28;20134;-78
2021/08/21 01:53:07;;;;;;;;;;;;;;;;;;5052717;28;19970;-79
2021/08/21 01:55:36;;;;;;;;;;;;;;;;;;5036778;28;19913;-79
2021/08/21 01:58:06;;;;;;;;;;;;;;;;;;5054796;28;19917;-78
2021/08/21 02:01:04;;;;;;;;;;;;;;;;;;5037091;28;19917;-80
2021/08/21 02:03:35;;;;;;;;;;;;;;;;;;5020660;28;19929;-79
2021/08/21 02:06:02;;;;;;;;;;;;;;;;;;5022399;28;19918;-79
2021/08/21 02:08:28;;;;;;;;;;;;;;;;;;5053823;28;19929;-80
2021/08/21 02:10:54;;;;;;;;;;;;;;;;;;5034953;28;20496;-79
2021/08/21 02:13:19;;;;;;;;;;;;;;;;;;5038177;28;19920;-78
2021/08/21 02:15:44;;;;;;;;;;;;;;;;;;5038060;28;19965;-80
2021/08/21 02:18:10;;;;;;;;;;;;;;;;;;5050406;28;19928;-80
2021/08/21 02:20:49;;;;;;;;;;;;;;;;;;5059368;28;19941;-79
2021/08/21 02:23:19;;;;;;;;;;;;;;;;;;5051584;28;19914;-79
2021/08/21 02:25:44;;;;;;;;;;;;;;;;;;5026269;28;19985;-79
2021/08/21 02:28:17;;;;;;;;;;;;;;;;;;5020559;28;19936;-79
2021/08/21 02:30:42;;;;;;;;;;;;;;;;;;5034566;28;19953;-79
2021/08/21 02:33:07;;;;;;;;;;;;;;;;;;5057217;28;19991;-80
2021/08/21 02:35:35;;;;;;;;;;;;;;;;;;5025248;28;19921;-78
2021/08/21 02:38:01;;;;;;;;;;;;;;;;;;5034120;28;20002;-79
2021/08/21 02:40:26;;;;;;;;;;;;;;;;;;5037948;28;19917;-79
2021/08/21 02:42:52;;;;;;;;;;;;;;;;;;5022720;28;19928;-79
2021/08/21 02:45:17;;;;;;;;;;;;;;;;;;5022732;28;19913;-78
2021/08/21 02:47:42;;;;;;;;;;;;;;;;;;5055010;28;20089;-79
2021/08/21 02:50:08;;;;;;;;;;;;;;;;;;5027508;28;19925;-79
2021/08/21 02:52:33;;;;;;;;;;;;;;;;;;5051150;28;19925;-79
2021/08/21 02:54:58;;;;;;;;;;;;;;;;;;5037559;28;19902;-79
2021/08/21 02:57:23;;;;;;;;;;;;;;;;;;5053059;28;19902;-79
2021/08/21 02:59:51;;;;;;;;;;;;;;;;;;5052661;28;19921;-79
2021/08/21 03:02:16;;;;;;;;;;;;;;;;;;5022356;28;19928;-79
2021/08/21 03:04:44;;;;;;;;;;;;;;;;;;5052613;28;19952;-78
2021/08/21 03:07:13;;;;;;;;;;;;;;;;;;5052908;28;19928;-79
2021/08/21 03:09:54;;;;;;;;;;;;;;;;;;5037470;28;19952;-78
2021/08/21 03:12:26;;;;;;;;;;;;;;;;;;5055245;28;19967;-78
2021/08/21 03:14:54;;;;;;;;;;;;;;;;;;5053364;28;19994;-78
2021/08/21 03:17:19;;;;;;;;;;;;;;;;;;5026284;28;19902;-79
2021/08/21 03:19:44;;;;;;;;;;;;;;;;;;5033603;28;20029;-78
2021/08/21 03:22:11;;;;;;;;;;;;;;;;;;5053223;28;19922;-79
2021/08/21 03:24:39;;;;;;;;;;;;;;;;;;5021243;28;19917;-79
2021/08/21 03:27:05;;;;;;;;;;;;;;;;;;5036634;28;19921;-78
2021/08/21 03:29:31;;;;;;;;;;;;;;;;;;5051831;28;19979;-78
2021/08/21 03:31:56;;;;;;;;;;;;;;;;;;5023578;28;20189;-78
2021/08/21 03:34:25;;;;;;;;;;;;;;;;;;5023344;28;19917;-79
2021/08/21 03:36:52;;;;;;;;;;;;;;;;;;5028274;28;19932;-79
2021/08/21 03:39:17;;;;;;;;;;;;;;;;;;5020121;28;19918;-79
2021/08/21 03:41:44;;;;;;;;;;;;;;;;;;5020157;28;19952;-78
2021/08/21 03:44:09;;;;;;;;;;;;;;;;;;5051605;28;19917;-79
2021/08/21 03:46:36;;;;;;;;;;;;;;;;;;5049862;28;19944;-79
2021/08/21 03:49:02;;;;;;;;;;;;;;;;;;5049301;28;19936;-78
2021/08/21 03:51:29;;;;;;;;;;;;;;;;;;5036518;28;19924;-78
2021/08/21 03:53:54;;;;;;;;;;;;;;;;;;5020329;28;19973;-79
2021/08/21 03:56:20;;;;;;;;;;;;;;;;;;5052748;28;19945;-79
2021/08/21 03:58:53;;;;;;;;;;;;;;;;;;5036456;28;19957;-78
2021/08/21 04:01:20;;;;;;;;;;;;;;;;;;5054714;28;19917;-79
2021/08/21 04:03:50;;;;;;;;;;;;;;;;;;5038444;28;19914;-79
2021/08/21 04:06:16;;;;;;;;;;;;;;;;;;5011675;28;19918;-78
2021/08/21 04:08:42;;;;;;;;;;;;;;;;;;5012889;28;19918;-80
2021/08/21 04:11:08;;;;;;;;;;;;;;;;;;5030375;28;19926;-79
2021/08/21 04:13:42;;;;;;;;;;;;;;;;;;5036916;28;19932;-78
2021/08/21 04:16:08;;;;;;;;;;;;;;;;;;5055689;28;19917;-79
2021/08/21 04:18:33;;;;;;;;;;;;;;;;;;5055602;28;19909;-79
2021/08/21 04:20:59;;;;;;;;;;;;;;;;;;5058070;28;19928;-79
2021/08/21 04:23:24;;;;;;;;;;;;;;;;;;5022023;28;19917;-79
2021/08/21 04:25:51;;;;;;;;;;;;;;;;;;5056206;28;19922;-78
2021/08/21 04:28:17;;;;;;;;;;;;;;;;;;5022851;28;19906;-79
2021/08/21 04:30:42;;;;;;;;;;;;;;;;;;5039113;28;19985;-79
2021/08/21 04:33:07;;;;;;;;;;;;;;;;;;5022931;28;19932;-79
2021/08/21 04:35:32;;;;;;;;;;;;;;;;;;5038125;28;19920;-78
2021/08/21 04:38:00;;;;;;;;;;;;;;;;;;5024246;28;19917;-79
2021/08/21 04:40:25;;;;;;;;;;;;;;;;;;5041433;28;19978;-78
2021/08/21 04:42:55;;;;;;;;;;;;;;;;;;5038122;28;19924;-78
2021/08/21 04:45:21;;;;;;;;;;;;;;;;;;5024551;28;19915;-79
2021/08/21 04:47:46;;;;;;;;;;;;;;;;;;5054069;28;19925;-79
2021/08/21 04:50:12;;;;;;;;;;;;;;;;;;5026129;28;19913;-79
2021/08/21 04:52:37;;;;;;;;;;;;;;;;;;5028183;28;19901;-79
2021/08/21 04:55:03;;;;;;;;;;;;;;;;;;5028026;28;19949;-79
2021/08/21 04:57:29;;;;;;;;;;;;;;;;;;5021647;28;19981;-79
2021/08/21 04:59:55;;;;;;;;;;;;;;;;;;5040715;28;19930;-79
2021/08/21 05:02:20;;;;;;;;;;;;;;;;;;5024035;28;19968;-78
2021/08/21 05:04:45;;;;;;;;;;;;;;;;;;5056715;28;19921;-79
2021/08/21 05:07:11;;;;;;;;;;;;;;;;;;5026717;28;19909;-78
2021/08/21 05:09:42;;;;;;;;;;;;;;;;;;5037108;28;19993;-80
2021/08/21 05:12:12;;;;;;;;;;;;;;;;;;5018764;28;19917;-80
2021/08/21 05:14:47;;;;;;;;;;;;;;;;;;5024929;28;19924;-78
2021/08/21 05:17:12;;;;;;;;;;;;;;;;;;5038676;28;20232;-79
2021/08/21 05:20:04;;;;;;;;;;;;;;;;;;5031859;28;19939;-79
2021/08/21 05:25:10;;;;;;;;;;;;;;;;;;5037994;28;19981;-79
2021/08/21 05:27:37;;;;;;;;;;;;;;;;;;5054458;28;19992;-79
2021/08/21 05:30:04;;;;;;;;;;;;;;;;;;5052086;28;19936;-79
2021/08/21 05:32:29;;;;;;;;;;;;;;;;;;5021426;28;19918;-78
2021/08/21 05:34:54;;;;;;;;;;;;;;;;;;5022847;28;19907;-79
2021/08/21 05:37:19;;;;;;;;;;;;;;;;;;5023027;28;19971;-78
2021/08/21 05:39:44;;;;;;;;;;;;;;;;;;5024315;28;19940;-80
2021/08/21 05:42:10;;;;;;;;;;;;;;;;;;5022401;28;19918;-78
2021/08/21 05:44:37;;;;;;;;;;;;;;;;;;5022989;28;19925;-78
2021/08/21 05:47:02;;;;;;;;;;;;;;;;;;5024152;28;19981;-78
2021/08/21 05:49:28;;;;;;;;;;;;;;;;;;5020718;28;19937;-79
2021/08/21 05:51:53;;;;;;;;;;;;;;;;;;5022850;28;19959;-79
2021/08/21 05:54:22;;;;;;;;;;;;;;;;;;5039397;28;19921;-78
2021/08/21 05:56:47;;;;;;;;;;;;;;;;;;5023072;28;19917;-79
2021/08/21 05:59:12;;;;;;;;;;;;;;;;;;5023142;28;19921;-78
2021/08/21 06:01:38;;;;;;;;;;;;;;;;;;5024108;28;20177;-80
2021/08/21 06:04:03;;;;;;;;;;;;;;;;;;5022120;28;19918;-78
2021/08/21 06:06:29;;;;;;;;;;;;;;;;;;5035884;28;19917;-79
2021/08/21 06:08:54;;;;;;;;;;;;;;;;;;5053751;28;19967;-79
2021/08/21 06:11:19;;;;;;;;;;;;;;;;;;5056250;28;20085;-78
2021/08/21 06:13:45;;;;;;;;;;;;;;;;;;5023762;28;19910;-79
2021/08/21 06:16:10;;;;;;;;;;;;;;;;;;5038349;28;19936;-79
2021/08/21 06:18:37;;;;;;;;;;;;;;;;;;5020991;28;19918;-80
2021/08/21 06:21:03;;;;;;;;;;;;;;;;;;5022894;28;19925;-79
2021/08/21 06:23:28;;;;;;;;;;;;;;;;;;5021742;28;19909;-79
2021/08/21 06:25:53;;;;;;;;;;;;;;;;;;5021918;28;19941;-79
2021/08/21 06:28:18;;;;;;;;;;;;;;;;;;5053845;28;19917;-79
2021/08/21 06:30:44;;;;;;;;;;;;;;;;;;5021928;28;19909;-79
2021/08/21 06:33:09;;;;;;;;;;;;;;;;;;5039730;28;19917;-80
2021/08/21 06:35:34;;;;;;;;;;;;;;;;;;5018269;28;20179;-80
2021/08/21 06:37:59;;;;;;;;;;;;;;;;;;5021598;28;19945;-79
2021/08/21 06:40:24;;;;;;;;;;;;;;;;;;5020496;28;19914;-80
2021/08/21 06:42:50;;;;;;;;;;;;;;;;;;5023227;28;19913;-80
2021/08/21 06:45:21;;;;;;;;;;;;;;;;;;5019559;28;20001;-79
2021/08/21 06:47:46;;;;;;;;;;;;;;;;;;5052433;28;20194;-79
2021/08/21 06:50:11;;;;;;;;;;;;;;;;;;5021985;28;19921;-79
2021/08/21 06:52:37;;;;;;;;;;;;;;;;;;5022991;28;20279;-79
2021/08/21 06:55:02;;;;;;;;;;;;;;;;;;5024194;28;19902;-80
2021/08/21 06:57:27;;;;;;;;;;;;;;;;;;5023153;28;19918;-78
2021/08/21 06:59:52;;;;;;;;;;;;;;;;;;5020591;28;19921;-80
2021/08/21 07:02:17;;;;;;;;;;;;;;;;;;5050633;28;19917;-80
2021/08/21 07:04:43;;;;;;;;;;;;;;;;;;5034038;28;19914;-80
2021/08/21 07:07:08;;;;;;;;;;;;;;;;;;5019720;28;19942;-78
2021/08/21 07:09:36;;;;;;;;;;;;;;;;;;5052924;28;20184;-80
2021/08/21 07:12:01;;;;;;;;;;;;;;;;;;5038116;28;19901;-79
2021/08/21 07:14:26;;;;;;;;;;;;;;;;;;5019977;28;19957;-80
2021/08/21 07:16:51;;;;;;;;;;;;;;;;;;5024870;28;19917;-78
2021/08/21 07:19:17;;;;;;;;;;;;;;;;;;5019283;28;19924;-80
2021/08/21 07:21:42;;;;;;;;;;;;;;;;;;5023550;28;19927;-80
2021/08/21 07:24:07;;;;;;;;;;;;;;;;;;5017482;28;20202;-79
2021/08/21 07:26:33;;;;;;;;;;;;;;;;;;5020198;28;19921;-80
2021/08/21 07:28:58;;;;;;;;;;;;;;;;;;5021120;28;19929;-80
2021/08/21 07:31:23;;;;;;;;;;;;;;;;;;5019009;28;19917;-80
2021/08/21 07:33:49;;;;;;;;;;;;;;;;;;5022897;28;19964;-80
2021/08/21 07:36:14;;;;;;;;;;;;;;;;;;5049825;28;19918;-79
2021/08/21 07:38:39;;;;;;;;;;;;;;;;;;5019616;28;19985;-79
2021/08/21 07:41:04;;;;;;;;;;;;;;;;;;5046798;28;19921;-79
2021/08/21 07:43:29;;;;;;;;;;;;;;;;;;5017847;28;19978;-79
2021/08/21 07:45:55;;;;;;;;;;;;;;;;;;5053133;28;19918;-79
2021/08/21 07:48:22;;;;;;;;;;;;;;;;;;5033102;28;19925;-79
2021/08/21 07:50:48;;;;;;;;;;;;;;;;;;5024029;28;19971;-79
2021/08/21 07:53:13;;;;;;;;;;;;;;;;;;5047599;28;19936;-79
2021/08/21 07:55:38;;;;;;;;;;;;;;;;;;5017618;28;19925;-79
2021/08/21 07:58:03;;;;;;;;;;;;;;;;;;5055765;28;19924;-79
2021/08/21 08:00:29;;;;;;;;;;;;;;;;;;5018731;28;19917;-79
2021/08/21 08:02:54;;;;;;;;;;;;;;;;;;5021384;28;19910;-82
2021/08/21 08:05:19;;;;;;;;;;;;;;;;;;5009241;28;20181;-80
2021/08/21 08:07:44;;;;;;;;;;;;;;;;;;5016418;28;20231;-78
2021/08/21 08:10:09;;;;;;;;;;;;;;;;;;5016139;28;20088;-81
2021/08/21 08:12:35;;;;;;;;;;;;;;;;;;5016911;28;19912;-80
2021/08/21 08:15:00;;;;;;;;;;;;;;;;;;5038172;28;19926;-83
2021/08/21 08:17:27;;;;;;;;;;;;;;;;;;5016906;28;20041;-79
2021/08/21 08:19:53;;;;;;;;;;;;;;;;;;5017163;28;19917;-80
2021/08/21 08:22:19;;;;;;;;;;;;;;;;;;5027966;28;19928;-81
2021/08/21 08:24:45;;;;;;;;;;;;;;;;;;5048726;28;20429;-80
2021/08/21 08:27:13;;;;;;;;;;;;;;;;;;5020607;28;19917;-80
2021/08/21 08:29:38;;;;;;;;;;;;;;;;;;5029277;28;19921;-81
2021/08/21 08:32:06;;;;;;;;;;;;;;;;;;5015438;28;19917;-79
2021/08/21 08:34:31;;;;;;;;;;;;;;;;;;5020927;28;20361;-77
2021/08/21 08:36:56;;;;;;;;;;;;;;;;;;5042655;28;19918;-81
2021/08/21 08:39:21;;;;;;;;;;;;;;;;;;5017916;28;19917;-77
2021/08/21 08:41:47;;;;;;;;;;;;;;;;;;5021300;28;20081;-79
2021/08/21 08:44:12;;;;;;;;;;;;;;;;;;5029050;28;20009;-78
2021/08/21 08:46:37;;;;;;;;;;;;;;;;;;5020563;28;20000;-78
2021/08/21 08:49:02;;;;;;;;;;;;;;;;;;5015749;28;19948;-80
2021/08/21 08:51:28;;;;;;;;;;;;;;;;;;5015232;28;20432;-80
2021/08/21 08:53:53;;;;;;;;;;;;;;;;;;5049834;28;19925;-78
2021/08/21 08:56:18;;;;;;;;;;;;;;;;;;5010012;28;19925;-78
2021/08/21 08:58:43;;;;;;;;;;;;;;;;;;5018863;28;19926;-76
2021/08/21 09:01:09;;;;;;;;;;;;;;;;;;5042264;28;19917;-78
2021/08/21 09:03:34;;;;;;;;;;;;;;;;;;5010693;28;19918;-72
2021/08/21 09:06:00;;;;;;;;;;;;;;;;;;5018587;28;19917;-71
2021/08/21 09:08:27;;;;;;;;;;;;;;;;;;5011578;28;19913;-71
2021/08/21 09:10:53;;;;;;;;;;;;;;;;;;5018426;28;19925;-73
2021/08/21 09:13:18;;;;;;;;;;;;;;;;;;5009843;28;19917;-73
2021/08/21 09:15:43;;;;;;;;;;;;;;;;;;5013550;28;19917;-73
2021/08/21 09:18:08;;;;;;;;;;;;;;;;;;5018099;28;19981;-73
2021/08/21 09:20:33;;;;;;;;;;;;;;;;;;5012155;28;19924;-72
2021/08/21 09:22:59;;;;;;;;;;;;;;;;;;5017697;28;19913;-72
2021/08/21 09:25:24;;;;;;;;;;;;;;;;;;5044665;28;19924;-72
2021/08/21 09:27:49;;;;;;;;;;;;;;;;;;5010298;28;19953;-73
2021/08/21 09:30:15;;;;;;;;;;;;;;;;;;5030341;28;19936;-73
2021/08/21 09:32:41;;;;;;;;;;;;;;;;;;5009332;28;19928;-72
2021/08/21 09:35:06;;;;;;;;;;;;;;;;;;5019722;28;20481;-73
2021/08/21 09:37:31;;;;;;;;;;;;;;;;;;5015289;28;20013;-73
2021/08/21 09:39:56;;;;;;;;;;;;;;;;;;5008782;28;20184;-72
2021/08/21 09:42:22;;;;;;;;;;;;;;;;;;5045151;28;20171;-71
2021/08/21 09:44:47;;;;;;;;;;;;;;;;;;5010198;28;19928;-70
2021/08/21 09:47:12;;;;;;;;;;;;;;;;;;5015499;28;19925;-71
2021/08/21 09:49:37;;;;;;;;;;;;;;;;;;5010224;28;19926;-70
2021/08/21 09:52:03;;;;;;;;;;;;;;;;;;5042284;28;20179;-70
2021/08/21 09:54:30;;;;;;;;;;;;;;;;;;5020277;28;19917;-71
2021/08/21 09:56:55;;;;;;;;;;;;;;;;;;5007944;28;19918;-71
2021/08/21 09:59:21;;;;;;;;;;;;;;;;;;5013492;28;19949;-71
2021/08/21 10:01:46;;;;;;;;;;;;;;;;;;5009291;28;19917;-70
2021/08/21 10:04:11;;;;;;;;;;;;;;;;;;5012606;28;19909;-71
2021/08/21 10:06:36;;;;;;;;;;;;;;;;;;5018397;28;19945;-70
2021/08/21 10:09:08;;;;;;;;;;;;;;;;;;5010552;28;19922;-70
2021/08/21 10:11:33;;;;;;;;;;;;;;;;;;5019591;28;19992;-70
2021/08/21 10:13:59;;;;;;;;;;;;;;;;;;5009652;28;20604;-71
2021/08/21 10:16:26;;;;;;;;;;;;;;;;;;5012797;28;19918;-70
2021/08/21 10:18:52;;;;;;;;;;;;;;;;;;5017115;28;19918;-70
2021/08/21 10:21:17;;;;;;;;;;;;;;;;;;5009741;28;19917;-69
2021/08/21 10:23:42;;;;;;;;;;;;;;;;;;5016525;28;19961;-70
2021/08/21 10:26:07;;;;;;;;;;;;;;;;;;5013293;28;19917;-70
2021/08/21 10:28:33;;;;;;;;;;;;;;;;;;5043211;28;20486;-70
2021/08/21 10:30:58;;;;;;;;;;;;;;;;;;5023175;28;20012;-70
2021/08/21 10:33:23;;;;;;;;;;;;;;;;;;5011486;28;19976;-70
2021/08/21 10:35:48;;;;;;;;;;;;;;;;;;5045638;28;19925;-70
2021/08/21 10:38:14;;;;;;;;;;;;;;;;;;5040094;28;19917;-70
2021/08/21 10:40:39;;;;;;;;;;;;;;;;;;5014324;28;19917;-70
2021/08/21 10:43:05;;;;;;;;;;;;;;;;;;5017700;28;19924;-70
2021/08/21 10:45:30;;;;;;;;;;;;;;;;;;5012277;28;19997;-70
2021/08/21 10:47:55;;;;;;;;;;;;;;;;;;5032182;28;20035;-70
2021/08/21 10:50:21;;;;;;;;;;;;;;;;;;5011295;28;20020;-70
2021/08/21 10:52:47;;;;;;;;;;;;;;;;;;5010643;28;19945;-70
2021/08/21 10:55:12;;;;;;;;;;;;;;;;;;5032002;28;19921;-72
2021/08/21 10:57:37;;;;;;;;;;;;;;;;;;5009363;28;19928;-72
2021/08/21 11:00:03;;;;;;;;;;;;;;;;;;5017817;28;19967;-72
2021/08/21 11:02:29;;;;;;;;;;;;;;;;;;5016109;28;19918;-72
2021/08/21 11:04:54;;;;;;;;;;;;;;;;;;5026490;28;19913;-72
2021/08/21 11:07:21;;;;;;;;;;;;;;;;;;5046926;28;19921;-73
2021/08/21 11:09:47;;;;;;;;;;;;;;;;;;5009842;28;19932;-73
2021/08/21 11:12:14;;;;;;;;;;;;;;;;;;5014476;28;19921;-73
2021/08/21 11:14:40;;;;;;;;;;;;;;;;;;5009207;28;20031;-73
2021/08/21 11:17:11;;;;;;;;;;;;;;;;;;5040880;28;19921;-73
2021/08/21 11:19:36;;;;;;;;;;;;;;;;;;5013613;28;19913;-73
2021/08/21 11:22:01;;;;;;;;;;;;;;;;;;5026981;28;19918;-73
2021/08/21 11:24:26;;;;;;;;;;;;;;;;;;5032093;28;19925;-73
2021/08/21 11:26:52;;;;;;;;;;;;;;;;;;5010548;28;20262;-73
2021/08/21 11:29:17;;;;;;;;;;;;;;;;;;5010201;28;19989;-73
2021/08/21 11:31:42;;;;;;;;;;;;;;;;;;5015419;28;19921;-73
2021/08/21 11:34:07;;;;;;;;;;;;;;;;;;5041096;28;19956;-73
2021/08/21 11:36:33;;;;;;;;;;;;;;;;;;5016742;28;19941;-74
2021/08/21 11:38:58;;;;;;;;;;;;;;;;;;5011213;28;19941;-73
2021/08/21 11:41:23;;;;;;;;;;;;;;;;;;5006742;28;19929;-73
2021/08/21 11:43:48;;;;;;;;;;;;;;;;;;5013759;28;19953;-71
2021/08/21 11:46:14;;;;;;;;;;;;;;;;;;5007162;28;19929;-72
2021/08/21 11:48:42;;;;;;;;;;;;;;;;;;5013758;28;20002;-72
2021/08/21 11:51:08;;;;;;;;;;;;;;;;;;5022992;28;19968;-72
2021/08/21 11:53:33;;;;;;;;;;;;;;;;;;5007866;28;19944;-72
2021/08/21 11:55:58;;;;;;;;;;;;;;;;;;5012366;28;19944;-71
2021/08/21 11:58:24;;;;;;;;;;;;;;;;;;5008610;28;19967;-70
2021/08/21 12:00:53;;;;;;;;;;;;;;;;;;5010584;28;19981;-71
2021/08/21 12:03:19;;;;;;;;;;;;;;;;;;5009401;28;19928;-71
2021/08/21 12:05:45;;;;;;;;;;;;;;;;;;5011782;28;19913;-71
2021/08/21 12:08:10;;;;;;;;;;;;;;;;;;5047022;28;19929;-71
2021/08/21 12:10:35;;;;;;;;;;;;;;;;;;5012413;28;19925;-72
2021/08/21 12:13:00;;;;;;;;;;;;;;;;;;5045124;28;19917;-72
2021/08/21 12:15:25;;;;;;;;;;;;;;;;;;5017960;28;19977;-72
2021/08/21 12:17:51;;;;;;;;;;;;;;;;;;5044715;28;19917;-72
2021/08/21 12:20:16;;;;;;;;;;;;;;;;;;5019290;28;19949;-72
2021/08/21 12:22:41;;;;;;;;;;;;;;;;;;5014373;28;19925;-71
2021/08/21 12:25:06;;;;;;;;;;;;;;;;;;5017291;28;19945;-72
2021/08/21 12:27:32;;;;;;;;;;;;;;;;;;5015677;28;19937;-72
2021/08/21 12:29:57;;;;;;;;;;;;;;;;;;5018640;28;20065;-72
2021/08/21 12:32:22;;;;;;;;;;;;;;;;;;5022066;28;19918;-72
2021/08/21 12:34:48;;;;;;;;;;;;;;;;;;5022006;28;19918;-73
2021/08/21 12:37:13;;;;;;;;;;;;;;;;;;5049542;28;19921;-73
2021/08/21 12:39:42;;;;;;;;;;;;;;;;;;5017179;28;19929;-74
2021/08/21 12:42:07;;;;;;;;;;;;;;;;;;5031626;28;20099;-74
2021/08/21 12:44:33;;;;;;;;;;;;;;;;;;5018359;28;19943;-74
2021/08/21 12:46:58;;;;;;;;;;;;;;;;;;5014181;28;19929;-74
2021/08/21 12:49:23;;;;;;;;;;;;;;;;;;5011893;28;19918;-74
2021/08/21 12:51:48;;;;;;;;;;;;;;;;;;5037272;28;19918;-74
2021/08/21 12:54:14;;;;;;;;;;;;;;;;;;5028277;28;19963;-74
2021/08/21 12:56:39;;;;;;;;;;;;;;;;;;5021344;28;20151;-74
2021/08/21 12:59:04;;;;;;;;;;;;;;;;;;5009424;28;19918;-74
2021/08/21 13:01:29;;;;;;;;;;;;;;;;;;5012308;28;19925;-74
2021/08/21 13:03:55;;;;;;;;;;;;;;;;;;5017995;28;19917;-74
2021/08/21 13:06:20;;;;;;;;;;;;;;;;;;5011141;28;19952;-74
2021/08/21 13:08:45;;;;;;;;;;;;;;;;;;5033037;28;19949;-74
2021/08/21 13:11:10;;;;;;;;;;;;;;;;;;5010074;28;19948;-74
2021/08/21 13:13:35;;;;;;;;;;;;;;;;;;5039407;28;20247;-75
2021/08/21 13:16:01;;;;;;;;;;;;;;;;;;5050097;28;19917;-75
2021/08/21 13:18:26;;;;;;;;;;;;;;;;;;5011148;28;19921;-75
2021/08/21 13:20:51;;;;;;;;;;;;;;;;;;5017693;28;19945;-74
2021/08/21 13:23:16;;;;;;;;;;;;;;;;;;5013648;28;19924;-73
2021/08/21 13:25:44;;;;;;;;;;;;;;;;;;5014210;28;19933;-73
2021/08/21 13:28:09;;;;;;;;;;;;;;;;;;5018463;28;21131;-74
2021/08/21 13:30:35;;;;;;;;;;;;;;;;;;5012713;28;19953;-74
2021/08/21 13:33:00;;;;;;;;;;;;;;;;;;5018297;28;19949;-74
2021/08/21 13:35:26;;;;;;;;;;;;;;;;;;5012352;28;19945;-74
2021/08/21 13:37:51;;;;;;;;;;;;;;;;;;5012169;28;19927;-75
2021/08/21 13:40:16;;;;;;;;;;;;;;;;;;5018356;28;19925;-74
2021/08/21 13:42:42;;;;;;;;;;;;;;;;;;5006530;28;19922;-74
2021/08/21 13:45:07;;;;;;;;;;;;;;;;;;5017825;28;20234;-74
2021/08/21 13:47:32;;;;;;;;;;;;;;;;;;5013264;28;19930;-75
2021/08/21 13:49:57;;;;;;;;;;;;;;;;;;5014560;28;19928;-75
2021/08/21 13:52:23;;;;;;;;;;;;;;;;;;5018607;28;19985;-75
2021/08/21 13:54:51;;;;;;;;;;;;;;;;;;5011323;28;20212;-75
2021/08/21 13:57:16;;;;;;;;;;;;;;;;;;5017497;28;19940;-74
2021/08/21 13:59:41;;;;;;;;;;;;;;;;;;5011465;28;19929;-74
2021/08/21 14:02:07;;;;;;;;;;;;;;;;;;5009203;28;20044;-74
2021/08/21 14:04:32;;;;;;;;;;;;;;;;;;5020410;28;19922;-74
2021/08/21 14:06:57;;;;;;;;;;;;;;;;;;5041123;28;19951;-73
2021/08/21 14:09:22;;;;;;;;;;;;;;;;;;5015776;28;20454;-74
2021/08/21 14:11:48;;;;;;;;;;;;;;;;;;5008162;28;19917;-74
2021/08/21 14:14:13;;;;;;;;;;;;;;;;;;5010798;28;20402;-74
2021/08/21 14:16:40;;;;;;;;;;;;;;;;;;5016019;28;19917;-74
2021/08/21 14:19:05;;;;;;;;;;;;;;;;;;5009739;28;19918;-74
2021/08/21 14:21:31;;;;;;;;;;;;;;;;;;5017843;28;19925;-74
2021/08/21 14:23:56;;;;;;;;;;;;;;;;;;5006849;28;19940;-74
2021/08/21 14:26:21;;;;;;;;;;;;;;;;;;5004764;28;19960;-74
2021/08/21 14:28:46;;;;;;;;;;;;;;;;;;5017972;28;20722;-74
2021/08/21 14:31:11;;;;;;;;;;;;;;;;;;5005834;28;19923;-74
2021/08/21 14:33:37;;;;;;;;;;;;;;;;;;5021658;28;19917;-74
2021/08/21 14:36:02;;;;;;;;;;;;;;;;;;4982584;28;19921;-74
2021/08/21 14:38:27;;;;;;;;;;;;;;;;;;4969836;28;20391;-74
2021/08/21 14:40:52;;;;;;;;;;;;;;;;;;4983951;28;19930;-74
2021/08/21 14:43:18;;;;;;;;;;;;;;;;;;4987615;28;19925;-74
2021/08/21 14:45:43;;;;;;;;;;;;;;;;;;4985690;28;19918;-74
2021/08/21 14:48:11;;;;;;;;;;;;;;;;;;4987087;28;20462;-74
2021/08/21 14:50:36;;;;;;;;;;;;;;;;;;4982656;28;19924;-74
2021/08/21 14:53:04;;;;;;;;;;;;;;;;;;5003234;28;19943;-70
2021/08/21 14:55:29;;;;;;;;;;;;;;;;;;4985578;28;19918;-71
2021/08/21 14:57:54;;;;;;;;;;;;;;;;;;4989292;28;19924;-71
2021/08/21 15:00:22;;;;;;;;;;;;;;;;;;4984506;28;19952;-70
2021/08/21 15:02:47;;;;;;;;;;;;;;;;;;4985504;28;19914;-71
2021/08/21 15:05:12;;;;;;;;;;;;;;;;;;4986386;28;19918;-71
2021/08/21 15:07:37;;;;;;;;;;;;;;;;;;4985822;28;19914;-71
2021/08/21 15:10:03;;;;;;;;;;;;;;;;;;5020635;28;19969;-70
2021/08/21 15:12:28;;;;;;;;;;;;;;;;;;4983666;28;19914;-70
2021/08/21 15:14:53;;;;;;;;;;;;;;;;;;4985872;28;19925;-70
2021/08/21 15:17:18;;;;;;;;;;;;;;;;;;4988009;28;19925;-70
2021/08/21 15:19:44;;;;;;;;;;;;;;;;;;4983827;28;19922;-71
2021/08/21 15:22:09;;;;;;;;;;;;;;;;;;4988481;28;19925;-71
2021/08/21 15:24:35;;;;;;;;;;;;;;;;;;4988867;28;19925;-70
2021/08/21 15:27:00;;;;;;;;;;;;;;;;;;4988279;28;19940;-71
2021/08/21 15:29:25;;;;;;;;;;;;;;;;;;4991243;28;20375;-70
2021/08/21 15:31:51;;;;;;;;;;;;;;;;;;4987549;28;19917;-71
2021/08/21 15:34:17;;;;;;;;;;;;;;;;;;4987253;28;19977;-73
2021/08/21 15:36:42;;;;;;;;;;;;;;;;;;4987505;28;19918;-71
2021/08/21 15:39:07;;;;;;;;;;;;;;;;;;4985787;28;19913;-71
2021/08/21 15:41:32;;;;;;;;;;;;;;;;;;4988025;28;20388;-71
2021/08/21 15:43:58;;;;;;;;;;;;;;;;;;4982075;28;19925;-71
2021/08/21 15:46:23;;;;;;;;;;;;;;;;;;4976699;28;19925;-71
2021/08/21 15:48:48;;;;;;;;;;;;;;;;;;4988786;28;19983;-71
2021/08/21 15:51:13;;;;;;;;;;;;;;;;;;4987437;28;19914;-71
2021/08/21 15:53:38;;;;;;;;;;;;;;;;;;5007040;28;21015;-71
2021/08/21 15:56:04;;;;;;;;;;;;;;;;;;4989411;28;19964;-70
2021/08/21 15:58:29;;;;;;;;;;;;;;;;;;4990578;28;19916;-71
2021/08/21 16:00:55;;;;;;;;;;;;;;;;;;4986316;28;19922;-70
2021/08/21 16:03:20;;;;;;;;;;;;;;;;;;4995595;28;20005;-71
2021/08/21 16:05:45;;;;;;;;;;;;;;;;;;4995077;28;19918;-71
2021/08/21 16:08:10;;;;;;;;;;;;;;;;;;4981437;28;19996;-70
2021/08/21 16:10:36;;;;;;;;;;;;;;;;;;4986629;28;19913;-71
2021/08/21 16:13:02;;;;;;;;;;;;;;;;;;4983878;28;20412;-70
2021/08/21 16:15:27;;;;;;;;;;;;;;;;;;4986649;28;20390;-71
2021/08/21 16:17:52;;;;;;;;;;;;;;;;;;4987990;28;20396;-70
2021/08/21 16:20:17;;;;;;;;;;;;;;;;;;5000587;28;19968;-70
2021/08/21 16:22:43;;;;;;;;;;;;;;;;;;4989172;28;19945;-70
2021/08/21 16:25:10;;;;;;;;;;;;;;;;;;4982834;28;19957;-70
2021/08/21 16:27:35;;;;;;;;;;;;;;;;;;4982662;28;19932;-69
2021/08/21 16:30:00;;;;;;;;;;;;;;;;;;4989576;28;20059;-70
2021/08/21 16:32:26;;;;;;;;;;;;;;;;;;4983351;28;19914;-70
2021/08/21 16:34:51;;;;;;;;;;;;;;;;;;4988742;28;19917;-72
2021/08/21 16:37:16;;;;;;;;;;;;;;;;;;4984108;28;20012;-71
2021/08/21 16:39:41;;;;;;;;;;;;;;;;;;4988462;28;19967;-71